sensor_id;sensor_type;location;lat;lon;timestamp;P1;durP1;ratioP1;P2;durP2;ratioP2
32152;SDS011;18656;50.580;11.392;2023-05-07T00:00:43;27.00;;;21.65;;
32152;SDS011;18656;50.580;11.392;2023-05-07T00:03:10;30.95;;;21.75;;
32152;SDS011;18656;50.580;11.392;2023-05-07T00:05:39;29.77;;;21.60;;
32152;SDS011;18656;50.580;11.392;2023-05-07T00:08:07;27.73;;;21.75;;
32152;SDS011;18656;50.580;11.392;2023-05-07T00:10:35;29.40;;;23.33;;
32152;SDS011;18656;50.580;11.392;2023-05-07T00:13:02;32.50;;;23.60;;
32152;SDS011;18656;50.580;11.392;2023-05-07T00:15:29;34.05;;;23.63;;
32152;SDS011;18656;50.580;11.392;2023-05-07T00:17:56;31.05;;;22.85;;
32152;SDS011;18656;50.580;11.392;2023-05-07T00:20:25;34.22;;;24.33;;
32152;SDS011;18656;50.580;11.392;2023-05-07T00:22:53;31.42;;;23.30;;
32152;SDS011;18656;50.580;11.392;2023-05-07T00:25:20;33.65;;;24.00;;
32152;SDS011;18656;50.580;11.392;2023-05-07T00:27:47;32.67;;;23.40;;
32152;SDS011;18656;50.580;11.392;2023-05-07T00:30:15;35.38;;;23.63;;
32152;SDS011;18656;50.580;11.392;2023-05-07T00:32:42;27.23;;;21.88;;
32152;SDS011;18656;50.580;11.392;2023-05-07T00:35:11;30.02;;;23.15;;
32152;SDS011;18656;50.580;11.392;2023-05-07T00:37:39;30.92;;;22.02;;
32152;SDS011;18656;50.580;11.392;2023-05-07T00:40:06;30.05;;;22.48;;
32152;SDS011;18656;50.580;11.392;2023-05-07T00:42:35;32.47;;;21.88;;
32152;SDS011;18656;50.580;11.392;2023-05-07T00:45:03;29.25;;;22.38;;
32152;SDS011;18656;50.580;11.392;2023-05-07T00:47:30;31.95;;;23.80;;
32152;SDS011;18656;50.580;11.392;2023-05-07T00:49:57;33.17;;;23.52;;
32152;SDS011;18656;50.580;11.392;2023-05-07T00:52:25;34.03;;;23.80;;
32152;SDS011;18656;50.580;11.392;2023-05-07T00:54:53;33.08;;;23.88;;
32152;SDS011;18656;50.580;11.392;2023-05-07T00:57:21;29.73;;;22.27;;
32152;SDS011;18656;50.580;11.392;2023-05-07T00:59:48;29.35;;;22.00;;
32152;SDS011;18656;50.580;11.392;2023-05-07T01:02:16;30.10;;;22.83;;
32152;SDS011;18656;50.580;11.392;2023-05-07T01:04:43;27.88;;;22.30;;
32152;SDS011;18656;50.580;11.392;2023-05-07T01:07:11;32.03;;;23.48;;
32152;SDS011;18656;50.580;11.392;2023-05-07T01:09:38;29.17;;;21.63;;
32152;SDS011;18656;50.580;11.392;2023-05-07T01:12:06;31.55;;;22.80;;
32152;SDS011;18656;50.580;11.392;2023-05-07T01:14:33;28.00;;;21.88;;
32152;SDS011;18656;50.580;11.392;2023-05-07T01:17:01;30.02;;;23.00;;
32152;SDS011;18656;50.580;11.392;2023-05-07T01:19:28;30.33;;;21.45;;
32152;SDS011;18656;50.580;11.392;2023-05-07T01:21:58;32.58;;;24.15;;
32152;SDS011;18656;50.580;11.392;2023-05-07T01:24:28;30.77;;;23.92;;
32152;SDS011;18656;50.580;11.392;2023-05-07T01:26:56;33.30;;;24.05;;
32152;SDS011;18656;50.580;11.392;2023-05-07T01:29:23;29.05;;;22.80;;
32152;SDS011;18656;50.580;11.392;2023-05-07T01:31:50;29.70;;;22.42;;
32152;SDS011;18656;50.580;11.392;2023-05-07T01:34:19;29.92;;;21.77;;
32152;SDS011;18656;50.580;11.392;2023-05-07T01:36:48;27.75;;;21.95;;
32152;SDS011;18656;50.580;11.392;2023-05-07T01:39:15;31.73;;;23.63;;
32152;SDS011;18656;50.580;11.392;2023-05-07T01:41:43;31.67;;;24.05;;
32152;SDS011;18656;50.580;11.392;2023-05-07T01:44:10;32.58;;;22.77;;
32152;SDS011;18656;50.580;11.392;2023-05-07T01:46:39;31.45;;;22.55;;
32152;SDS011;18656;50.580;11.392;2023-05-07T01:49:06;30.40;;;22.67;;
32152;SDS011;18656;50.580;11.392;2023-05-07T01:51:33;35.70;;;23.77;;
32152;SDS011;18656;50.580;11.392;2023-05-07T01:54:01;32.30;;;23.30;;
32152;SDS011;18656;50.580;11.392;2023-05-07T01:56:29;33.47;;;23.20;;
32152;SDS011;18656;50.580;11.392;2023-05-07T01:58:56;31.02;;;22.10;;
32152;SDS011;18656;50.580;11.392;2023-05-07T02:01:23;34.00;;;24.27;;
32152;SDS011;18656;50.580;11.392;2023-05-07T02:03:51;30.15;;;22.30;;
32152;SDS011;18656;50.580;11.392;2023-05-07T02:06:20;30.10;;;21.52;;
32152;SDS011;18656;50.580;11.392;2023-05-07T02:08:47;33.72;;;23.40;;
32152;SDS011;18656;50.580;11.392;2023-05-07T02:11:14;35.40;;;24.33;;
32152;SDS011;18656;50.580;11.392;2023-05-07T02:13:41;34.67;;;24.23;;
32152;SDS011;18656;50.580;11.392;2023-05-07T02:16:08;39.30;;;25.73;;
32152;SDS011;18656;50.580;11.392;2023-05-07T02:18:37;35.35;;;25.00;;
32152;SDS011;18656;50.580;11.392;2023-05-07T02:21:04;36.58;;;24.30;;
32152;SDS011;18656;50.580;11.392;2023-05-07T02:23:31;35.95;;;25.05;;
32152;SDS011;18656;50.580;11.392;2023-05-07T02:25:58;39.38;;;26.08;;
32152;SDS011;18656;50.580;11.392;2023-05-07T02:28:25;37.90;;;25.13;;
32152;SDS011;18656;50.580;11.392;2023-05-07T02:30:52;34.60;;;24.90;;
32152;SDS011;18656;50.580;11.392;2023-05-07T02:33:20;36.42;;;25.00;;
32152;SDS011;18656;50.580;11.392;2023-05-07T02:35:48;36.33;;;25.75;;
32152;SDS011;18656;50.580;11.392;2023-05-07T02:38:15;36.90;;;25.20;;
32152;SDS011;18656;50.580;11.392;2023-05-07T02:40:42;39.85;;;27.27;;
32152;SDS011;18656;50.580;11.392;2023-05-07T02:43:09;36.80;;;25.98;;
32152;SDS011;18656;50.580;11.392;2023-05-07T02:45:36;33.25;;;25.33;;
32152;SDS011;18656;50.580;11.392;2023-05-07T02:48:04;38.08;;;26.27;;
32152;SDS011;18656;50.580;11.392;2023-05-07T02:50:34;37.22;;;27.13;;
32152;SDS011;18656;50.580;11.392;2023-05-07T02:53:01;41.85;;;27.90;;
32152;SDS011;18656;50.580;11.392;2023-05-07T02:55:29;40.25;;;27.52;;
32152;SDS011;18656;50.580;11.392;2023-05-07T02:57:57;40.67;;;26.02;;
32152;SDS011;18656;50.580;11.392;2023-05-07T03:00:24;42.03;;;28.15;;
32152;SDS011;18656;50.580;11.392;2023-05-07T03:02:51;42.15;;;27.77;;
32152;SDS011;18656;50.580;11.392;2023-05-07T03:05:19;36.72;;;25.83;;
32152;SDS011;18656;50.580;11.392;2023-05-07T03:07:46;39.88;;;26.92;;
32152;SDS011;18656;50.580;11.392;2023-05-07T03:10:13;38.67;;;25.70;;
32152;SDS011;18656;50.580;11.392;2023-05-07T03:12:41;38.83;;;24.05;;
32152;SDS011;18656;50.580;11.392;2023-05-07T03:15:08;35.25;;;24.80;;
32152;SDS011;18656;50.580;11.392;2023-05-07T03:17:36;38.20;;;25.98;;
32152;SDS011;18656;50.580;11.392;2023-05-07T03:20:04;34.95;;;24.73;;
32152;SDS011;18656;50.580;11.392;2023-05-07T03:22:31;34.47;;;24.00;;
32152;SDS011;18656;50.580;11.392;2023-05-07T03:24:58;38.45;;;26.65;;
32152;SDS011;18656;50.580;11.392;2023-05-07T03:27:26;36.13;;;24.08;;
32152;SDS011;18656;50.580;11.392;2023-05-07T03:29:53;33.88;;;24.67;;
32152;SDS011;18656;50.580;11.392;2023-05-07T03:32:20;36.90;;;24.98;;
32152;SDS011;18656;50.580;11.392;2023-05-07T03:34:47;39.63;;;24.95;;
32152;SDS011;18656;50.580;11.392;2023-05-07T03:37:15;39.58;;;26.30;;
32152;SDS011;18656;50.580;11.392;2023-05-07T03:39:42;37.03;;;24.48;;
32152;SDS011;18656;50.580;11.392;2023-05-07T03:42:09;33.67;;;24.10;;
32152;SDS011;18656;50.580;11.392;2023-05-07T03:44:36;33.30;;;24.52;;
32152;SDS011;18656;50.580;11.392;2023-05-07T03:47:03;35.33;;;24.52;;
32152;SDS011;18656;50.580;11.392;2023-05-07T03:49:31;34.90;;;22.80;;
32152;SDS011;18656;50.580;11.392;2023-05-07T03:51:58;32.40;;;22.65;;
32152;SDS011;18656;50.580;11.392;2023-05-07T03:54:25;34.92;;;24.20;;
32152;SDS011;18656;50.580;11.392;2023-05-07T03:56:52;37.25;;;24.30;;
32152;SDS011;18656;50.580;11.392;2023-05-07T03:59:19;32.95;;;23.27;;
32152;SDS011;18656;50.580;11.392;2023-05-07T04:01:47;37.60;;;23.77;;
32152;SDS011;18656;50.580;11.392;2023-05-07T04:04:15;31.05;;;21.63;;
32152;SDS011;18656;50.580;11.392;2023-05-07T04:06:42;33.05;;;22.70;;
32152;SDS011;18656;50.580;11.392;2023-05-07T04:09:09;35.53;;;23.48;;
32152;SDS011;18656;50.580;11.392;2023-05-07T04:11:37;35.97;;;23.70;;
32152;SDS011;18656;50.580;11.392;2023-05-07T04:14:06;34.70;;;23.23;;
32152;SDS011;18656;50.580;11.392;2023-05-07T04:16:34;35.65;;;24.08;;
32152;SDS011;18656;50.580;11.392;2023-05-07T04:19:01;37.22;;;24.80;;
32152;SDS011;18656;50.580;11.392;2023-05-07T04:21:28;26.42;;;20.85;;
32152;SDS011;18656;50.580;11.392;2023-05-07T04:23:56;32.45;;;22.42;;
32152;SDS011;18656;50.580;11.392;2023-05-07T04:26:23;32.72;;;22.05;;
32152;SDS011;18656;50.580;11.392;2023-05-07T04:28:51;30.50;;;22.40;;
32152;SDS011;18656;50.580;11.392;2023-05-07T04:31:18;30.90;;;20.95;;
32152;SDS011;18656;50.580;11.392;2023-05-07T04:33:48;31.15;;;21.98;;
32152;SDS011;18656;50.580;11.392;2023-05-07T04:36:15;30.52;;;21.77;;
32152;SDS011;18656;50.580;11.392;2023-05-07T04:38:42;31.45;;;22.05;;
32152;SDS011;18656;50.580;11.392;2023-05-07T04:41:09;27.27;;;20.48;;
32152;SDS011;18656;50.580;11.392;2023-05-07T04:43:37;34.55;;;21.20;;
32152;SDS011;18656;50.580;11.392;2023-05-07T04:46:04;32.53;;;22.02;;
32152;SDS011;18656;50.580;11.392;2023-05-07T04:48:31;32.78;;;21.00;;
32152;SDS011;18656;50.580;11.392;2023-05-07T04:50:59;34.00;;;21.65;;
32152;SDS011;18656;50.580;11.392;2023-05-07T04:53:41;35.15;;;22.63;;
32152;SDS011;18656;50.580;11.392;2023-05-07T04:56:09;29.42;;;20.35;;
32152;SDS011;18656;50.580;11.392;2023-05-07T04:58:37;30.80;;;20.83;;
32152;SDS011;18656;50.580;11.392;2023-05-07T05:01:04;31.42;;;19.90;;
32152;SDS011;18656;50.580;11.392;2023-05-07T05:03:31;29.08;;;21.13;;
32152;SDS011;18656;50.580;11.392;2023-05-07T05:05:58;30.50;;;20.90;;
32152;SDS011;18656;50.580;11.392;2023-05-07T05:08:26;29.42;;;20.77;;
32152;SDS011;18656;50.580;11.392;2023-05-07T05:10:53;27.20;;;19.73;;
32152;SDS011;18656;50.580;11.392;2023-05-07T05:13:20;30.67;;;19.45;;
32152;SDS011;18656;50.580;11.392;2023-05-07T05:15:48;28.83;;;20.15;;
32152;SDS011;18656;50.580;11.392;2023-05-07T05:18:15;28.67;;;20.45;;
32152;SDS011;18656;50.580;11.392;2023-05-07T05:20:42;27.45;;;19.52;;
32152;SDS011;18656;50.580;11.392;2023-05-07T05:23:10;32.42;;;19.70;;
32152;SDS011;18656;50.580;11.392;2023-05-07T05:25:37;27.05;;;18.80;;
32152;SDS011;18656;50.580;11.392;2023-05-07T05:28:06;27.77;;;17.55;;
32152;SDS011;18656;50.580;11.392;2023-05-07T05:30:33;26.33;;;18.88;;
32152;SDS011;18656;50.580;11.392;2023-05-07T05:33:00;24.23;;;18.13;;
32152;SDS011;18656;50.580;11.392;2023-05-07T05:35:29;26.70;;;17.65;;
32152;SDS011;18656;50.580;11.392;2023-05-07T05:37:56;27.17;;;17.83;;
32152;SDS011;18656;50.580;11.392;2023-05-07T05:40:24;23.63;;;17.13;;
32152;SDS011;18656;50.580;11.392;2023-05-07T05:42:51;25.80;;;17.15;;
32152;SDS011;18656;50.580;11.392;2023-05-07T05:45:18;25.23;;;17.52;;
32152;SDS011;18656;50.580;11.392;2023-05-07T05:47:46;24.10;;;16.80;;
32152;SDS011;18656;50.580;11.392;2023-05-07T05:50:13;24.30;;;17.55;;
32152;SDS011;18656;50.580;11.392;2023-05-07T05:52:40;24.88;;;16.48;;
32152;SDS011;18656;50.580;11.392;2023-05-07T05:55:08;25.33;;;16.95;;
32152;SDS011;18656;50.580;11.392;2023-05-07T05:57:35;23.88;;;16.58;;
32152;SDS011;18656;50.580;11.392;2023-05-07T06:00:02;24.58;;;17.17;;
32152;SDS011;18656;50.580;11.392;2023-05-07T06:02:31;24.70;;;16.23;;
32152;SDS011;18656;50.580;11.392;2023-05-07T06:04:58;22.45;;;15.95;;
32152;SDS011;18656;50.580;11.392;2023-05-07T06:07:26;23.77;;;16.42;;
32152;SDS011;18656;50.580;11.392;2023-05-07T06:09:53;21.63;;;15.90;;
32152;SDS011;18656;50.580;11.392;2023-05-07T06:12:21;25.83;;;16.38;;
32152;SDS011;18656;50.580;11.392;2023-05-07T06:14:48;23.35;;;16.10;;
32152;SDS011;18656;50.580;11.392;2023-05-07T06:17:15;22.75;;;15.38;;
32152;SDS011;18656;50.580;11.392;2023-05-07T06:19:46;21.85;;;15.27;;
32152;SDS011;18656;50.580;11.392;2023-05-07T06:22:13;23.70;;;15.30;;
32152;SDS011;18656;50.580;11.392;2023-05-07T06:24:41;24.17;;;15.88;;
32152;SDS011;18656;50.580;11.392;2023-05-07T06:27:08;23.40;;;15.10;;
32152;SDS011;18656;50.580;11.392;2023-05-07T06:29:35;22.42;;;15.15;;
32152;SDS011;18656;50.580;11.392;2023-05-07T06:32:12;22.27;;;14.55;;
32152;SDS011;18656;50.580;11.392;2023-05-07T06:34:40;22.08;;;14.57;;
32152;SDS011;18656;50.580;11.392;2023-05-07T06:37:07;23.48;;;15.43;;
32152;SDS011;18656;50.580;11.392;2023-05-07T06:39:35;20.48;;;13.60;;
32152;SDS011;18656;50.580;11.392;2023-05-07T06:42:02;19.05;;;14.00;;
32152;SDS011;18656;50.580;11.392;2023-05-07T06:44:30;18.30;;;13.38;;
32152;SDS011;18656;50.580;11.392;2023-05-07T06:46:58;17.83;;;13.07;;
32152;SDS011;18656;50.580;11.392;2023-05-07T06:49:25;18.63;;;13.70;;
32152;SDS011;18656;50.580;11.392;2023-05-07T06:51:52;19.52;;;13.68;;
32152;SDS011;18656;50.580;11.392;2023-05-07T06:54:20;19.75;;;13.52;;
32152;SDS011;18656;50.580;11.392;2023-05-07T06:56:49;19.20;;;13.75;;
32152;SDS011;18656;50.580;11.392;2023-05-07T06:59:16;17.40;;;13.52;;
32152;SDS011;18656;50.580;11.392;2023-05-07T07:01:48;16.10;;;12.40;;
32152;SDS011;18656;50.580;11.392;2023-05-07T07:04:15;17.52;;;12.25;;
32152;SDS011;18656;50.580;11.392;2023-05-07T07:06:43;17.77;;;12.45;;
32152;SDS011;18656;50.580;11.392;2023-05-07T07:09:10;14.25;;;11.63;;
32152;SDS011;18656;50.580;11.392;2023-05-07T07:11:38;15.60;;;11.40;;
32152;SDS011;18656;50.580;11.392;2023-05-07T07:14:05;17.55;;;12.82;;
32152;SDS011;18656;50.580;11.392;2023-05-07T07:16:32;15.75;;;12.50;;
32152;SDS011;18656;50.580;11.392;2023-05-07T07:18:59;15.02;;;12.23;;
32152;SDS011;18656;50.580;11.392;2023-05-07T07:21:27;16.27;;;13.07;;
32152;SDS011;18656;50.580;11.392;2023-05-07T07:23:54;14.35;;;11.45;;
32152;SDS011;18656;50.580;11.392;2023-05-07T07:26:22;16.48;;;12.57;;
32152;SDS011;18656;50.580;11.392;2023-05-07T07:28:49;19.40;;;14.23;;
32152;SDS011;18656;50.580;11.392;2023-05-07T07:31:16;19.08;;;13.68;;
32152;SDS011;18656;50.580;11.392;2023-05-07T07:33:44;24.40;;;18.15;;
32152;SDS011;18656;50.580;11.392;2023-05-07T07:36:11;16.38;;;11.85;;
32152;SDS011;18656;50.580;11.392;2023-05-07T07:38:38;15.88;;;12.02;;
32152;SDS011;18656;50.580;11.392;2023-05-07T07:41:07;16.80;;;12.88;;
32152;SDS011;18656;50.580;11.392;2023-05-07T07:43:34;35.83;;;28.75;;
32152;SDS011;18656;50.580;11.392;2023-05-07T07:46:02;26.23;;;20.73;;
32152;SDS011;18656;50.580;11.392;2023-05-07T07:48:29;17.33;;;13.52;;
32152;SDS011;18656;50.580;11.392;2023-05-07T07:50:56;20.98;;;13.90;;
32152;SDS011;18656;50.580;11.392;2023-05-07T07:53:23;18.27;;;14.43;;
32152;SDS011;18656;50.580;11.392;2023-05-07T07:55:51;21.70;;;14.60;;
32152;SDS011;18656;50.580;11.392;2023-05-07T07:58:24;18.63;;;13.50;;
32152;SDS011;18656;50.580;11.392;2023-05-07T08:00:51;20.70;;;16.83;;
32152;SDS011;18656;50.580;11.392;2023-05-07T08:03:20;20.27;;;16.23;;
32152;SDS011;18656;50.580;11.392;2023-05-07T08:05:48;24.30;;;18.73;;
32152;SDS011;18656;50.580;11.392;2023-05-07T08:08:17;21.50;;;16.38;;
32152;SDS011;18656;50.580;11.392;2023-05-07T08:10:44;26.25;;;19.00;;
32152;SDS011;18656;50.580;11.392;2023-05-07T08:13:11;24.00;;;16.70;;
32152;SDS011;18656;50.580;11.392;2023-05-07T08:15:39;63.30;;;40.03;;
32152;SDS011;18656;50.580;11.392;2023-05-07T08:18:06;28.50;;;20.33;;
32152;SDS011;18656;50.580;11.392;2023-05-07T08:20:33;21.77;;;16.50;;
32152;SDS011;18656;50.580;11.392;2023-05-07T08:23:05;24.52;;;17.27;;
32152;SDS011;18656;50.580;11.392;2023-05-07T08:25:33;23.85;;;16.17;;
32152;SDS011;18656;50.580;11.392;2023-05-07T08:28:01;24.25;;;18.05;;
32152;SDS011;18656;50.580;11.392;2023-05-07T08:30:29;20.52;;;15.32;;
32152;SDS011;18656;50.580;11.392;2023-05-07T08:32:56;25.10;;;20.77;;
32152;SDS011;18656;50.580;11.392;2023-05-07T08:35:24;53.42;;;42.75;;
32152;SDS011;18656;50.580;11.392;2023-05-07T08:37:52;20.17;;;15.48;;
32152;SDS011;18656;50.580;11.392;2023-05-07T08:40:20;27.65;;;18.55;;
32152;SDS011;18656;50.580;11.392;2023-05-07T08:42:48;19.67;;;15.27;;
32152;SDS011;18656;50.580;11.392;2023-05-07T08:45:17;18.70;;;13.38;;
32152;SDS011;18656;50.580;11.392;2023-05-07T08:47:50;18.15;;;13.40;;
32152;SDS011;18656;50.580;11.392;2023-05-07T08:50:20;18.23;;;15.55;;
32152;SDS011;18656;50.580;11.392;2023-05-07T08:52:49;20.13;;;14.00;;
32152;SDS011;18656;50.580;11.392;2023-05-07T08:55:16;26.92;;;22.33;;
32152;SDS011;18656;50.580;11.392;2023-05-07T08:57:44;39.90;;;29.92;;
32152;SDS011;18656;50.580;11.392;2023-05-07T09:00:11;18.85;;;15.18;;
32152;SDS011;18656;50.580;11.392;2023-05-07T09:02:39;21.75;;;15.57;;
32152;SDS011;18656;50.580;11.392;2023-05-07T09:05:07;20.50;;;15.75;;
32152;SDS011;18656;50.580;11.392;2023-05-07T09:07:35;18.55;;;13.95;;
32152;SDS011;18656;50.580;11.392;2023-05-07T09:10:10;19.98;;;14.23;;
32152;SDS011;18656;50.580;11.392;2023-05-07T09:12:39;18.25;;;13.88;;
32152;SDS011;18656;50.580;11.392;2023-05-07T09:15:07;17.00;;;13.70;;
32152;SDS011;18656;50.580;11.392;2023-05-07T09:17:35;17.45;;;13.80;;
32152;SDS011;18656;50.580;11.392;2023-05-07T09:20:03;15.10;;;12.23;;
32152;SDS011;18656;50.580;11.392;2023-05-07T09:22:33;15.10;;;12.35;;
32152;SDS011;18656;50.580;11.392;2023-05-07T09:25:00;15.68;;;12.70;;
32152;SDS011;18656;50.580;11.392;2023-05-07T09:27:28;16.35;;;13.07;;
32152;SDS011;18656;50.580;11.392;2023-05-07T09:29:55;18.02;;;12.63;;
32152;SDS011;18656;50.580;11.392;2023-05-07T09:32:22;15.73;;;12.82;;
32152;SDS011;18656;50.580;11.392;2023-05-07T09:34:52;17.48;;;12.07;;
32152;SDS011;18656;50.580;11.392;2023-05-07T09:37:19;16.25;;;12.32;;
32152;SDS011;18656;50.580;11.392;2023-05-07T09:39:49;16.73;;;12.07;;
32152;SDS011;18656;50.580;11.392;2023-05-07T09:42:16;15.68;;;11.98;;
32152;SDS011;18656;50.580;11.392;2023-05-07T09:44:50;14.05;;;10.68;;
32152;SDS011;18656;50.580;11.392;2023-05-07T09:47:18;13.45;;;11.63;;
32152;SDS011;18656;50.580;11.392;2023-05-07T09:49:46;14.82;;;11.52;;
32152;SDS011;18656;50.580;11.392;2023-05-07T09:52:14;15.45;;;12.32;;
32152;SDS011;18656;50.580;11.392;2023-05-07T09:54:41;13.77;;;11.52;;
32152;SDS011;18656;50.580;11.392;2023-05-07T09:57:10;12.50;;;10.85;;
32152;SDS011;18656;50.580;11.392;2023-05-07T09:59:39;13.63;;;10.88;;
32152;SDS011;18656;50.580;11.392;2023-05-07T10:02:09;11.23;;;9.80;;
32152;SDS011;18656;50.580;11.392;2023-05-07T10:04:36;11.57;;;9.93;;
32152;SDS011;18656;50.580;11.392;2023-05-07T10:07:04;12.40;;;10.48;;
32152;SDS011;18656;50.580;11.392;2023-05-07T10:09:35;15.10;;;10.73;;
32152;SDS011;18656;50.580;11.392;2023-05-07T10:12:05;18.33;;;10.07;;
32152;SDS011;18656;50.580;11.392;2023-05-07T10:14:34;9.80;;;8.82;;
32152;SDS011;18656;50.580;11.392;2023-05-07T10:17:01;9.50;;;7.93;;
32152;SDS011;18656;50.580;11.392;2023-05-07T10:19:29;11.90;;;9.55;;
32152;SDS011;18656;50.580;11.392;2023-05-07T10:22:00;10.77;;;9.68;;
32152;SDS011;18656;50.580;11.392;2023-05-07T10:24:29;9.93;;;8.93;;
32152;SDS011;18656;50.580;11.392;2023-05-07T10:27:00;10.88;;;9.18;;
32152;SDS011;18656;50.580;11.392;2023-05-07T10:29:37;9.60;;;8.60;;
32152;SDS011;18656;50.580;11.392;2023-05-07T10:32:10;10.15;;;8.52;;
32152;SDS011;18656;50.580;11.392;2023-05-07T10:34:42;10.18;;;8.68;;
32152;SDS011;18656;50.580;11.392;2023-05-07T10:37:10;20.35;;;13.00;;
32152;SDS011;18656;50.580;11.392;2023-05-07T10:39:40;10.43;;;9.30;;
32152;SDS011;18656;50.580;11.392;2023-05-07T10:42:08;10.50;;;9.40;;
32152;SDS011;18656;50.580;11.392;2023-05-07T10:44:35;11.60;;;9.15;;
32152;SDS011;18656;50.580;11.392;2023-05-07T10:47:04;12.30;;;8.93;;
32152;SDS011;18656;50.580;11.392;2023-05-07T10:49:32;11.65;;;9.70;;
32152;SDS011;18656;50.580;11.392;2023-05-07T10:52:32;134.93;;;101.88;;
32152;SDS011;18656;50.580;11.392;2023-05-07T10:57:39;19.35;;;16.13;;
32152;SDS011;18656;50.580;11.392;2023-05-07T11:05:29;26.05;;;16.30;;
32152;SDS011;18656;50.580;11.392;2023-05-07T11:08:03;13.50;;;10.48;;
32152;SDS011;18656;50.580;11.392;2023-05-07T11:10:52;12.90;;;10.50;;
32152;SDS011;18656;50.580;11.392;2023-05-07T11:13:18;11.93;;;10.40;;
32152;SDS011;18656;50.580;11.392;2023-05-07T11:15:46;8.32;;;7.55;;
32152;SDS011;18656;50.580;11.392;2023-05-07T11:18:15;9.95;;;8.43;;
32152;SDS011;18656;50.580;11.392;2023-05-07T11:20:47;9.60;;;8.70;;
32152;SDS011;18656;50.580;11.392;2023-05-07T11:26:03;8.65;;;7.75;;
32152;SDS011;18656;50.580;11.392;2023-05-07T11:28:31;8.77;;;7.88;;
32152;SDS011;18656;50.580;11.392;2023-05-07T11:30:58;8.82;;;7.93;;
32152;SDS011;18656;50.580;11.392;2023-05-07T11:33:26;9.85;;;8.13;;
32152;SDS011;18656;50.580;11.392;2023-05-07T11:35:54;8.10;;;7.30;;
32152;SDS011;18656;50.580;11.392;2023-05-07T11:38:22;7.95;;;7.20;;
32152;SDS011;18656;50.580;11.392;2023-05-07T11:40:52;11.05;;;9.32;;
32152;SDS011;18656;50.580;11.392;2023-05-07T11:43:20;9.32;;;8.32;;
32152;SDS011;18656;50.580;11.392;2023-05-07T11:45:48;16.45;;;11.48;;
32152;SDS011;18656;50.580;11.392;2023-05-07T11:48:16;11.23;;;10.02;;
32152;SDS011;18656;50.580;11.392;2023-05-07T11:50:50;8.57;;;7.80;;
32152;SDS011;18656;50.580;11.392;2023-05-07T11:53:18;10.25;;;8.88;;
32152;SDS011;18656;50.580;11.392;2023-05-07T11:55:46;9.55;;;8.55;;
32152;SDS011;18656;50.580;11.392;2023-05-07T11:58:15;11.23;;;8.95;;
32152;SDS011;18656;50.580;11.392;2023-05-07T12:00:50;9.20;;;8.30;;
32152;SDS011;18656;50.580;11.392;2023-05-07T12:03:18;8.98;;;7.70;;
32152;SDS011;18656;50.580;11.392;2023-05-07T12:05:46;12.18;;;10.82;;
32152;SDS011;18656;50.580;11.392;2023-05-07T12:08:14;10.35;;;9.35;;
32152;SDS011;18656;50.580;11.392;2023-05-07T12:10:42;9.45;;;8.45;;
32152;SDS011;18656;50.580;11.392;2023-05-07T12:13:20;8.63;;;7.78;;
32152;SDS011;18656;50.580;11.392;2023-05-07T12:15:51;8.07;;;7.25;;
32152;SDS011;18656;50.580;11.392;2023-05-07T12:18:18;9.82;;;8.30;;
32152;SDS011;18656;50.580;11.392;2023-05-07T12:20:47;7.70;;;7.00;;
32152;SDS011;18656;50.580;11.392;2023-05-07T12:23:14;10.20;;;8.20;;
32152;SDS011;18656;50.580;11.392;2023-05-07T12:25:42;9.10;;;7.63;;
32152;SDS011;18656;50.580;11.392;2023-05-07T12:28:13;8.27;;;7.22;;
32152;SDS011;18656;50.580;11.392;2023-05-07T12:30:45;8.65;;;7.82;;
32152;SDS011;18656;50.580;11.392;2023-05-07T12:33:13;7.65;;;6.95;;
32152;SDS011;18656;50.580;11.392;2023-05-07T12:35:43;8.35;;;7.60;;
32152;SDS011;18656;50.580;11.392;2023-05-07T12:38:11;9.25;;;7.45;;
32152;SDS011;18656;50.580;11.392;2023-05-07T12:40:39;7.80;;;7.00;;
32152;SDS011;18656;50.580;11.392;2023-05-07T12:43:15;7.68;;;6.88;;
32152;SDS011;18656;50.580;11.392;2023-05-07T12:45:43;9.63;;;8.02;;
32152;SDS011;18656;50.580;11.392;2023-05-07T12:48:10;9.38;;;7.47;;
32152;SDS011;18656;50.580;11.392;2023-05-07T12:50:38;8.55;;;7.75;;
32152;SDS011;18656;50.580;11.392;2023-05-07T12:53:08;7.82;;;7.07;;
32152;SDS011;18656;50.580;11.392;2023-05-07T12:55:42;9.75;;;7.65;;
32152;SDS011;18656;50.580;11.392;2023-05-07T12:58:17;8.20;;;7.40;;
32152;SDS011;18656;50.580;11.392;2023-05-07T13:00:47;7.60;;;6.90;;
32152;SDS011;18656;50.580;11.392;2023-05-07T13:03:22;8.18;;;7.15;;
32152;SDS011;18656;50.580;11.392;2023-05-07T13:05:53;7.78;;;7.07;;
32152;SDS011;18656;50.580;11.392;2023-05-07T13:08:28;7.35;;;6.68;;
32152;SDS011;18656;50.580;11.392;2023-05-07T13:10:56;9.32;;;7.32;;
32152;SDS011;18656;50.580;11.392;2023-05-07T13:13:24;8.40;;;7.00;;
32152;SDS011;18656;50.580;11.392;2023-05-07T13:15:54;9.00;;;7.05;;
32152;SDS011;18656;50.580;11.392;2023-05-07T13:18:24;9.88;;;7.25;;
32152;SDS011;18656;50.580;11.392;2023-05-07T13:20:52;7.47;;;6.68;;
32152;SDS011;18656;50.580;11.392;2023-05-07T13:23:20;7.95;;;7.20;;
32152;SDS011;18656;50.580;11.392;2023-05-07T13:25:48;7.55;;;6.85;;
32152;SDS011;18656;50.580;11.392;2023-05-07T13:28:16;7.03;;;6.32;;
32152;SDS011;18656;50.580;11.392;2023-05-07T13:30:43;6.88;;;6.28;;
32152;SDS011;18656;50.580;11.392;2023-05-07T13:33:10;6.80;;;6.18;;
32152;SDS011;18656;50.580;11.392;2023-05-07T13:35:38;6.50;;;5.90;;
32152;SDS011;18656;50.580;11.392;2023-05-07T13:38:05;6.00;;;5.40;;
32152;SDS011;18656;50.580;11.392;2023-05-07T13:40:32;6.38;;;5.80;;
32152;SDS011;18656;50.580;11.392;2023-05-07T13:43:00;6.80;;;5.93;;
32152;SDS011;18656;50.580;11.392;2023-05-07T13:45:30;7.78;;;5.93;;
32152;SDS011;18656;50.580;11.392;2023-05-07T13:47:57;6.70;;;6.05;;
32152;SDS011;18656;50.580;11.392;2023-05-07T13:50:25;6.18;;;5.68;;
32152;SDS011;18656;50.580;11.392;2023-05-07T13:52:53;5.97;;;5.47;;
32152;SDS011;18656;50.580;11.392;2023-05-07T13:55:21;5.93;;;5.43;;
32152;SDS011;18656;50.580;11.392;2023-05-07T13:57:54;5.40;;;4.90;;
32152;SDS011;18656;50.580;11.392;2023-05-07T14:00:22;7.80;;;5.33;;
32152;SDS011;18656;50.580;11.392;2023-05-07T14:02:50;5.53;;;5.03;;
32152;SDS011;18656;50.580;11.392;2023-05-07T14:05:20;5.90;;;5.03;;
32152;SDS011;18656;50.580;11.392;2023-05-07T14:07:52;6.57;;;5.22;;
32152;SDS011;18656;50.580;11.392;2023-05-07T14:10:19;5.75;;;5.22;;
32152;SDS011;18656;50.580;11.392;2023-05-07T14:12:46;5.65;;;5.15;;
32152;SDS011;18656;50.580;11.392;2023-05-07T14:15:14;5.20;;;4.50;;
32152;SDS011;18656;50.580;11.392;2023-05-07T14:17:42;3.97;;;3.70;;
32152;SDS011;18656;50.580;11.392;2023-05-07T14:20:10;5.00;;;4.60;;
32152;SDS011;18656;50.580;11.392;2023-05-07T14:22:40;4.45;;;4.15;;
32152;SDS011;18656;50.580;11.392;2023-05-07T14:25:07;4.60;;;4.20;;
32152;SDS011;18656;50.580;11.392;2023-05-07T14:27:36;4.47;;;4.07;;
32152;SDS011;18656;50.580;11.392;2023-05-07T14:30:03;4.88;;;4.40;;
32152;SDS011;18656;50.580;11.392;2023-05-07T14:32:31;5.20;;;4.20;;